createdAt,value
2019-02-06T00:01:18.645Z,23.30
2019-02-06T00:03:50.950Z,25.70
2019-02-06T00:06:36.053Z,24.73
2019-02-06T00:09:21.262Z,21.63
2019-02-06T00:11:53.870Z,21.13
2019-02-06T00:14:26.136Z,24.73
2019-02-06T00:17:18.013Z,20.30
2019-02-06T00:20:03.122Z,22.90
2019-02-06T00:22:48.085Z,23.50
2019-02-06T00:25:33.663Z,22.87
2019-02-06T00:28:18.385Z,22.90
2019-02-06T00:31:03.561Z,19.83
2019-02-06T00:33:48.450Z,25.17
2019-02-06T00:36:20.679Z,22.80
2019-02-06T00:39:34.434Z,23.77
2019-02-06T00:42:19.864Z,22.70
2019-02-06T00:47:58.386Z,21.03
2019-02-06T00:50:43.597Z,20.57
2019-02-06T00:53:28.755Z,22.23
2019-02-06T00:56:13.849Z,19.53
2019-02-06T00:58:46.150Z,22.57
2019-02-06T01:01:31.346Z,23.10
2019-02-06T01:04:16.118Z,22.27
2019-02-06T01:07:01.283Z,20.70
2019-02-06T01:09:46.490Z,19.20
2019-02-06T01:12:18.710Z,18.83
2019-02-06T01:14:50.946Z,21.73
2019-02-06T01:17:25.773Z,21.43
2019-02-06T01:20:04.551Z,20.87
2019-02-06T01:22:49.573Z,24.60
2019-02-06T01:25:22.272Z,19.80
2019-02-06T01:28:14.017Z,18.17
2019-02-06T01:34:06.024Z,21.00
2019-02-06T01:36:38.221Z,20.00
2019-02-06T01:39:30.359Z,19.73
2019-02-06T01:42:15.753Z,21.80
2019-02-06T01:45:01.400Z,21.00
2019-02-06T01:47:46.385Z,17.17
2019-02-06T01:50:32.363Z,21.47
2019-02-06T01:53:17.415Z,17.90
2019-02-06T01:55:49.713Z,18.17
2019-02-06T01:58:22.219Z,18.63
2019-02-06T02:01:07.557Z,22.47
2019-02-06T02:03:52.749Z,23.80
2019-02-06T02:06:37.969Z,17.70
2019-02-06T02:09:22.858Z,19.23
2019-02-06T02:12:08.176Z,20.77
2019-02-06T02:14:40.475Z,21.53
2019-02-06T02:17:25.862Z,20.97
2019-02-06T02:19:58.081Z,17.07
2019-02-06T02:22:50.918Z,20.10
2019-02-06T02:25:35.955Z,17.80
2019-02-06T02:28:21.214Z,18.23
2019-02-06T02:31:06.498Z,18.20
2019-02-06T02:33:51.507Z,17.23
2019-02-06T02:36:36.438Z,18.83
2019-02-06T02:39:21.542Z,20.17
2019-02-06T02:41:54.203Z,16.47
2019-02-06T02:44:45.933Z,19.10
2019-02-06T02:47:30.553Z,19.07
2019-02-06T02:50:16.003Z,15.53
2019-02-06T02:53:00.601Z,18.70
2019-02-06T02:55:32.913Z,20.17
2019-02-06T02:58:24.714Z,18.87
2019-02-06T03:01:29.206Z,17.70
2019-02-06T03:04:24.697Z,16.47
2019-02-06T03:06:57.018Z,17.73
2019-02-06T03:09:48.823Z,18.60
2019-02-06T03:12:33.954Z,19.90
2019-02-06T03:15:19.170Z,18.63
2019-02-06T03:18:04.337Z,20.10
2019-02-06T03:20:36.452Z,17.97
2019-02-06T03:23:28.875Z,19.23
2019-02-06T03:26:14.145Z,17.93
2019-02-06T03:28:59.410Z,19.00
2019-02-06T03:31:45.141Z,21.80
2019-02-06T03:34:29.912Z,21.67
2019-02-06T03:37:14.933Z,21.10
2019-02-06T03:39:47.251Z,22.47
2019-02-06T03:42:33.009Z,23.07
2019-02-06T03:45:17.769Z,18.73
2019-02-06T03:48:02.759Z,19.90
2019-02-06T03:50:47.746Z,20.80
2019-02-06T03:53:32.902Z,18.47
2019-02-06T03:59:21.612Z,20.33
2019-02-06T04:02:06.696Z,20.40
2019-02-06T04:04:51.730Z,18.90
2019-02-06T04:07:37.010Z,21.43
2019-02-06T04:10:21.819Z,20.33
2019-02-06T04:13:06.120Z,27.20
2019-02-06T04:15:51.506Z,23.63
2019-02-06T04:18:36.491Z,19.97
2019-02-06T04:21:21.670Z,23.57
2019-02-06T04:24:06.693Z,24.10
2019-02-06T04:26:51.744Z,21.10
2019-02-06T04:29:24.074Z,21.00
2019-02-06T04:31:56.272Z,22.03
2019-02-06T04:34:28.373Z,22.53
2019-02-06T04:37:20.506Z,22.13
2019-02-06T04:40:05.764Z,24.97
2019-02-06T04:42:50.668Z,21.93
2019-02-06T04:45:36.118Z,22.37
2019-02-06T04:48:08.337Z,23.70
2019-02-06T04:51:00.268Z,23.50
2019-02-06T04:53:45.704Z,28.27
2019-02-06T04:56:17.986Z,30.40
2019-02-06T04:59:02.818Z,25.20
2019-02-06T05:01:47.786Z,26.90
2019-02-06T05:04:32.773Z,28.10
2019-02-06T05:07:19.645Z,27.60
2019-02-06T05:10:04.858Z,27.47
2019-02-06T05:12:50.229Z,33.63
2019-02-06T05:15:22.907Z,29.50
2019-02-06T05:17:55.955Z,28.83
2019-02-06T05:20:49.630Z,30.33
2019-02-06T05:23:34.880Z,37.33
2019-02-06T05:26:19.898Z,32.03
2019-02-06T05:29:05.917Z,30.80
2019-02-06T05:31:50.717Z,35.27
2019-02-06T05:34:35.517Z,33.27
2019-02-06T05:37:31.561Z,34.80
2019-02-06T05:39:55.541Z,35.80
2019-02-06T05:42:47.369Z,33.53
2019-02-06T05:45:32.696Z,35.17
2019-02-06T05:48:17.797Z,37.13
2019-02-06T05:50:50.275Z,39.60
2019-02-06T05:53:34.893Z,33.33
2019-02-06T05:56:19.926Z,37.33
2019-02-06T05:59:05.306Z,40.97
2019-02-06T06:01:50.104Z,34.50
2019-02-06T06:04:35.186Z,35.53
2019-02-06T06:07:20.864Z,39.97
2019-02-06T06:10:05.381Z,37.17
2019-02-06T06:12:50.532Z,37.47
2019-02-06T06:15:35.492Z,35.57
2019-02-06T06:18:21.995Z,39.67
2019-02-06T06:21:07.783Z,36.03
2019-02-06T06:23:52.941Z,38.67
2019-02-06T06:26:38.125Z,42.17
2019-02-06T06:29:10.376Z,39.47
2019-02-06T06:32:02.817Z,37.83
2019-02-06T06:34:47.934Z,38.53
2019-02-06T06:37:33.126Z,39.57
2019-02-06T06:40:18.163Z,42.30
2019-02-06T06:43:03.500Z,44.70
2019-02-06T06:45:48.352Z,45.20
2019-02-06T06:48:33.721Z,39.47
2019-02-06T06:51:18.338Z,45.07
2019-02-06T06:54:03.711Z,46.33
2019-02-06T06:56:48.761Z,43.57
2019-02-06T06:59:33.774Z,40.70
2019-02-06T07:02:18.769Z,43.43
2019-02-06T07:05:05.571Z,42.93
2019-02-06T07:07:50.640Z,41.10
2019-02-06T07:10:36.509Z,42.30
2019-02-06T07:13:08.929Z,43.63
2019-02-06T07:16:01.316Z,43.87
2019-02-06T07:18:46.578Z,42.63
2019-02-06T07:21:31.567Z,42.87
2019-02-06T07:24:16.551Z,46.27
2019-02-06T07:26:49.100Z,44.57
2019-02-06T07:29:34.541Z,41.83
2019-02-06T07:32:07.181Z,45.63
2019-02-06T07:34:58.989Z,43.53
2019-02-06T07:37:44.197Z,41.83
2019-02-06T07:40:29.249Z,40.63
2019-02-06T07:43:14.437Z,39.93
2019-02-06T07:45:59.591Z,40.43
2019-02-06T07:48:44.660Z,40.97
2019-02-06T07:51:29.715Z,42.17
2019-02-06T07:54:15.340Z,40.60
2019-02-06T07:56:50.331Z,38.17
2019-02-06T07:59:36.053Z,43.43
2019-02-06T08:02:20.765Z,40.60
2019-02-06T08:05:05.717Z,38.63
2019-02-06T08:07:50.907Z,42.37
2019-02-06T08:10:25.149Z,42.80
2019-02-06T08:13:12.030Z,39.30
2019-02-06T08:16:00.272Z,36.97
2019-02-06T08:18:35.181Z,38.13
2019-02-06T08:21:13.192Z,40.63
2019-02-06T08:24:07.462Z,42.47
2019-02-06T08:26:43.064Z,40.13
2019-02-06T08:29:36.622Z,36.87
2019-02-06T08:32:31.895Z,36.20
2019-02-06T08:35:21.608Z,37.03
2019-02-06T08:41:24.582Z,39.17
2019-02-06T08:44:10.919Z,40.60
2019-02-06T08:46:57.279Z,36.90
2019-02-06T08:49:45.567Z,41.23
2019-02-06T08:52:34.405Z,36.63
2019-02-06T08:55:20.243Z,39.40
2019-02-06T08:57:52.786Z,34.43
2019-02-06T09:00:38.085Z,40.80
2019-02-06T09:03:24.005Z,32.93
2019-02-06T09:09:13.299Z,37.90
2019-02-06T09:11:58.277Z,35.03
2019-02-06T09:14:30.653Z,37.77
2019-02-06T09:17:16.426Z,40.90
2019-02-06T09:20:01.297Z,34.53
2019-02-06T09:28:48.124Z,35.10
2019-02-06T09:31:45.327Z,33.10
2019-02-06T09:34:54.679Z,35.70
2019-02-06T09:37:30.541Z,34.87
2019-02-06T09:40:05.049Z,36.40
2019-02-06T09:42:49.814Z,32.50
2019-02-06T09:45:22.626Z,36.90
2019-02-06T09:48:08.279Z,38.67
2019-02-06T09:50:41.013Z,36.13
2019-02-06T09:53:26.391Z,32.97
2019-02-06T09:56:11.732Z,35.47
2019-02-06T09:58:57.752Z,38.13
2019-02-06T10:01:31.157Z,35.23
2019-02-06T10:04:17.660Z,29.00
2019-02-06T10:07:02.742Z,32.20
2019-02-06T10:09:48.210Z,27.67
2019-02-06T10:12:34.200Z,29.47
2019-02-06T10:15:07.247Z,31.00
2019-02-06T10:17:52.507Z,32.93
2019-02-06T10:20:38.150Z,29.43
2019-02-06T10:23:11.140Z,26.30
2019-02-06T10:26:02.961Z,29.67
2019-02-06T10:28:48.430Z,28.33
2019-02-06T10:31:21.183Z,32.13
2019-02-06T10:34:06.257Z,33.07
2019-02-06T10:36:38.724Z,25.53
2019-02-06T10:39:34.196Z,26.97
2019-02-06T10:42:10.578Z,24.90
2019-02-06T10:44:55.559Z,28.00
2019-02-06T10:47:40.935Z,25.90
2019-02-06T10:50:16.088Z,27.17
2019-02-06T10:53:00.955Z,26.27
2019-02-06T10:55:45.990Z,25.50
2019-02-06T11:01:36.673Z,28.97
2019-02-06T11:04:22.078Z,25.50
2019-02-06T11:06:54.445Z,25.87
2019-02-06T11:09:48.301Z,45.67
2019-02-06T11:12:33.553Z,63.03
2019-02-06T11:15:18.339Z,27.97
2019-02-06T11:18:03.880Z,24.47
2019-02-06T11:20:48.936Z,19.53
2019-02-06T11:23:34.418Z,24.47
2019-02-06T11:26:07.115Z,22.77
2019-02-06T11:29:04.189Z,22.07
2019-02-06T11:31:36.432Z,22.37
2019-02-06T11:34:09.095Z,21.17
2019-02-06T11:37:01.068Z,19.27
2019-02-06T11:39:57.306Z,21.07
2019-02-06T11:42:33.720Z,17.63
2019-02-06T11:45:18.510Z,16.87
2019-02-06T11:48:03.530Z,18.63
2019-02-06T11:50:48.614Z,16.87
2019-02-06T11:53:33.648Z,17.43
2019-02-06T11:56:18.666Z,19.40
2019-02-06T11:59:03.874Z,23.47
2019-02-06T12:01:56.138Z,41.50
2019-02-06T12:07:48.359Z,16.63
2019-02-06T12:10:33.352Z,20.07
2019-02-06T12:13:18.578Z,15.57
2019-02-06T12:16:03.510Z,15.07
2019-02-06T12:18:48.670Z,16.07
2019-02-06T12:21:33.634Z,17.23
2019-02-06T12:24:06.360Z,15.93
2019-02-06T12:26:51.786Z,17.43
2019-02-06T12:29:36.788Z,13.93
2019-02-06T12:32:21.793Z,14.57
2019-02-06T12:34:54.747Z,14.53
2019-02-06T12:37:47.016Z,13.33
2019-02-06T12:40:21.651Z,15.83
2019-02-06T12:43:12.934Z,15.30
2019-02-06T12:45:58.459Z,15.27
2019-02-06T12:48:43.209Z,14.33
2019-02-06T12:51:28.170Z,17.37
2019-02-06T12:54:13.670Z,17.57
2019-02-06T12:56:58.382Z,15.67
2019-02-06T12:59:43.945Z,14.97
2019-02-06T13:02:28.534Z,15.40
2019-02-06T13:05:13.714Z,17.20
2019-02-06T13:07:46.040Z,14.70
2019-02-06T13:10:34.341Z,19.17
2019-02-06T13:13:17.812Z,14.33
2019-02-06T13:15:50.260Z,21.67
2019-02-06T13:18:24.282Z,19.63
2019-02-06T13:21:36.370Z,18.57
2019-02-06T13:24:21.211Z,18.07
2019-02-06T13:26:54.837Z,17.33
2019-02-06T13:29:40.461Z,17.73
2019-02-06T13:32:25.460Z,13.50
2019-02-06T13:35:10.492Z,16.20
2019-02-06T13:37:55.668Z,15.60
2019-02-06T13:43:44.841Z,13.37
2019-02-06T13:46:29.604Z,16.03
2019-02-06T13:49:15.004Z,13.40
2019-02-06T13:52:00.691Z,18.03
2019-02-06T13:54:32.913Z,16.43
2019-02-06T13:57:46.445Z,81.13
2019-02-06T14:00:52.522Z,25.47
2019-02-06T14:03:44.295Z,16.40
2019-02-06T14:06:29.321Z,26.03
2019-02-06T14:09:22.537Z,24.17
2019-02-06T14:12:02.517Z,16.47
2019-02-06T14:14:47.572Z,18.43
2019-02-06T14:17:32.817Z,17.70
2019-02-06T14:20:09.099Z,15.90
2019-02-06T14:23:20.533Z,15.57
2019-02-06T14:26:05.488Z,20.30
2019-02-06T14:28:50.716Z,18.17
2019-02-06T14:31:36.010Z,20.37
2019-02-06T14:34:21.246Z,21.10
2019-02-06T14:37:32.992Z,17.80
2019-02-06T14:40:17.562Z,21.27
2019-02-06T14:43:03.021Z,21.90
2019-02-06T14:45:48.342Z,25.77
2019-02-06T14:48:33.339Z,24.17
2019-02-06T14:51:18.397Z,21.90
2019-02-06T14:54:03.502Z,21.20
2019-02-06T14:56:48.634Z,15.30
2019-02-06T15:00:00.324Z,18.47
2019-02-06T15:03:11.839Z,23.17
2019-02-06T15:05:57.237Z,22.13
2019-02-06T15:08:43.024Z,21.37
2019-02-06T15:11:28.197Z,17.80
2019-02-06T15:14:13.600Z,20.23
2019-02-06T15:17:25.085Z,23.67
2019-02-06T15:20:28.457Z,27.93
2019-02-06T15:23:14.021Z,22.17
2019-02-06T15:25:58.916Z,25.03
2019-02-06T15:28:44.116Z,27.20
2019-02-06T15:31:29.013Z,19.87
2019-02-06T15:34:15.593Z,23.67
2019-02-06T15:37:00.857Z,18.07
2019-02-06T15:39:46.472Z,19.37
2019-02-06T15:42:31.239Z,22.83
2019-02-06T15:45:16.450Z,23.50
2019-02-06T15:48:01.880Z,28.57
2019-02-06T15:50:47.542Z,27.43
2019-02-06T15:53:52.463Z,21.70
2019-02-06T15:57:05.796Z,20.00
2019-02-06T15:59:51.071Z,19.00
2019-02-06T16:02:36.338Z,17.43
2019-02-06T16:05:52.144Z,16.73
2019-02-06T16:08:37.445Z,19.13
2019-02-06T16:11:22.413Z,17.80
2019-02-06T16:14:07.497Z,18.87
2019-02-06T16:16:52.383Z,18.23
2019-02-06T16:19:37.415Z,21.47
2019-02-06T16:22:22.588Z,34.10
2019-02-06T16:25:08.293Z,44.77
2019-02-06T16:27:53.496Z,22.33
2019-02-06T16:30:38.455Z,21.07
2019-02-06T16:33:23.564Z,39.17
2019-02-06T16:36:08.603Z,36.17
2019-02-06T16:38:54.011Z,32.23
2019-02-06T16:41:39.009Z,28.43
2019-02-06T16:44:24.174Z,26.33
2019-02-06T16:47:09.190Z,25.97
2019-02-06T16:49:54.042Z,20.73
2019-02-06T16:53:05.421Z,20.73
2019-02-06T16:55:50.236Z,20.40
2019-02-06T16:58:35.377Z,20.27
2019-02-06T17:01:20.268Z,21.93
2019-02-06T17:04:05.526Z,22.93
2019-02-06T17:06:50.494Z,70.07
2019-02-06T17:09:36.582Z,23.57
2019-02-06T17:12:21.571Z,23.27
2019-02-06T17:15:06.645Z,28.67
2019-02-06T17:17:51.657Z,37.60
2019-02-06T17:21:03.011Z,44.67
2019-02-06T17:23:47.638Z,26.40
2019-02-06T17:26:32.847Z,19.77
2019-02-06T17:29:17.707Z,20.47
2019-02-06T17:32:02.824Z,22.13
2019-02-06T17:34:47.721Z,21.23
2019-02-06T17:37:33.065Z,17.03
2019-02-06T17:40:18.076Z,23.77
2019-02-06T17:43:14.276Z,19.13
2019-02-06T17:45:57.568Z,23.43
2019-02-06T17:48:42.240Z,19.53
2019-02-06T17:51:27.088Z,20.60
2019-02-06T17:54:11.974Z,25.53
2019-02-06T17:56:57.028Z,30.47
2019-02-06T17:59:29.228Z,29.73
2019-02-06T18:02:21.333Z,22.83
2019-02-06T18:05:06.062Z,30.60
2019-02-06T18:07:38.721Z,24.83
2019-02-06T18:10:23.834Z,22.97
2019-02-06T18:12:56.057Z,25.97
2019-02-06T18:15:47.778Z,25.10
2019-02-06T18:18:33.060Z,29.33
2019-02-06T18:21:18.172Z,33.87
2019-02-06T18:23:50.510Z,25.43
2019-02-06T18:26:45.988Z,38.47
2019-02-06T18:29:30.953Z,39.17
2019-02-06T18:32:15.848Z,26.97
2019-02-06T18:35:03.304Z,40.60
2019-02-06T18:37:48.066Z,34.63
2019-02-06T18:40:32.819Z,39.53
2019-02-06T18:43:18.061Z,33.73
2019-02-06T18:46:03.509Z,18.67
2019-02-06T18:48:49.104Z,20.53
2019-02-06T18:51:33.785Z,29.23
2019-02-06T18:54:18.842Z,42.43
2019-02-06T18:57:03.910Z,36.80
2019-02-06T18:59:36.357Z,27.67
2019-02-06T19:02:08.832Z,25.90
2019-02-06T19:04:54.029Z,23.33
2019-02-06T19:07:38.900Z,36.77
2019-02-06T19:10:23.804Z,32.13
2019-02-06T19:13:09.005Z,40.97
2019-02-06T19:15:56.526Z,31.90
2019-02-06T19:18:40.721Z,62.27
2019-02-06T19:21:13.029Z,44.00
2019-02-06T19:23:57.572Z,34.50
2019-02-06T19:26:30.193Z,33.30
2019-02-06T19:29:14.703Z,32.30
2019-02-06T19:31:47.209Z,27.47
2019-02-06T19:34:32.557Z,23.73
2019-02-06T19:37:17.525Z,22.37
2019-02-06T19:40:02.549Z,22.47
2019-02-06T19:42:34.905Z,24.70
2019-02-06T19:45:26.930Z,36.63
2019-02-06T19:48:22.307Z,25.67
2019-02-06T19:51:06.678Z,74.70
2019-02-06T19:53:51.869Z,28.30
2019-02-06T19:56:36.895Z,60.73
2019-02-06T19:59:21.901Z,38.33
2019-02-06T20:02:06.684Z,30.67
2019-02-06T20:04:51.904Z,27.47
2019-02-06T20:07:24.423Z,17.67
2019-02-06T20:10:09.913Z,24.20
2019-02-06T20:12:55.066Z,24.77
2019-02-06T20:15:40.187Z,20.23
2019-02-06T20:18:12.509Z,18.33
2019-02-06T20:20:57.794Z,17.37
2019-02-06T20:23:42.665Z,19.00
2019-02-06T20:26:14.959Z,18.83
2019-02-06T20:29:06.999Z,20.17
2019-02-06T20:31:52.265Z,19.90
2019-02-06T20:34:37.464Z,18.37
2019-02-06T20:37:22.521Z,19.37
2019-02-06T20:40:07.746Z,21.77
2019-02-06T20:42:52.688Z,19.83
2019-02-06T20:45:37.899Z,18.10
2019-02-06T20:48:23.124Z,17.63
2019-02-06T20:50:55.345Z,19.40
2019-02-06T20:53:27.574Z,17.63
2019-02-06T20:56:12.540Z,19.20
2019-02-06T20:58:57.515Z,22.73
2019-02-06T21:01:42.797Z,19.80
2019-02-06T21:04:27.701Z,22.60
2019-02-06T21:07:12.267Z,20.63
2019-02-06T21:09:57.214Z,19.70
2019-02-06T21:12:29.622Z,21.00
2019-02-06T21:15:21.696Z,16.27
2019-02-06T21:18:06.637Z,18.93
2019-02-06T21:20:39.318Z,17.47
2019-02-06T21:23:24.953Z,18.53
2019-02-06T21:26:10.130Z,28.17
2019-02-06T21:28:55.061Z,26.37
2019-02-06T21:31:40.124Z,19.47
2019-02-06T21:34:25.272Z,23.57
2019-02-06T21:37:10.153Z,17.57
2019-02-06T21:39:55.161Z,17.20
2019-02-06T21:42:40.153Z,23.20
2019-02-06T21:45:25.269Z,22.33
2019-02-06T21:47:57.593Z,18.50
2019-02-06T21:50:43.004Z,18.20
2019-02-06T21:53:28.262Z,23.63
2019-02-06T21:56:13.081Z,18.80
2019-02-06T21:58:58.098Z,17.47
2019-02-06T22:01:43.054Z,18.60
2019-02-06T22:04:28.199Z,15.73
2019-02-06T22:07:13.390Z,20.83
2019-02-06T22:09:58.417Z,21.03
2019-02-06T22:12:43.713Z,16.30
2019-02-06T22:15:28.770Z,16.47
2019-02-06T22:18:13.788Z,18.83
2019-02-06T22:20:59.364Z,16.43
2019-02-06T22:23:43.818Z,18.63
2019-02-06T22:26:28.963Z,25.07
2019-02-06T22:29:13.767Z,22.47
2019-02-06T22:31:58.764Z,18.23
2019-02-06T22:34:43.773Z,18.40
2019-02-06T22:37:28.915Z,19.90
2019-02-06T22:40:01.418Z,14.63
2019-02-06T22:42:33.864Z,19.13
2019-02-06T22:45:18.586Z,19.57
2019-02-06T22:48:03.921Z,20.97
2019-02-06T22:50:48.846Z,16.47
2019-02-06T22:53:34.060Z,19.63
2019-02-06T22:56:19.962Z,18.97
2019-02-06T22:58:52.332Z,18.87
2019-02-06T23:01:37.848Z,17.80
2019-02-06T23:04:10.553Z,19.90
2019-02-06T23:06:55.717Z,20.20
2019-02-06T23:09:40.691Z,19.20
2019-02-06T23:12:13.502Z,18.87
2019-02-06T23:14:45.618Z,15.47
2019-02-06T23:17:30.435Z,19.07
2019-02-06T23:20:24.179Z,18.00
2019-02-06T23:22:56.435Z,17.17
2019-02-06T23:25:43.091Z,19.13
2019-02-06T23:28:15.705Z,30.80
2019-02-06T23:30:47.893Z,27.43
2019-02-06T23:33:20.245Z,25.93
2019-02-06T23:36:12.090Z,18.47
2019-02-06T23:38:57.716Z,17.87
2019-02-06T23:41:43.007Z,22.07
2019-02-06T23:44:15.493Z,23.97
2019-02-06T23:47:02.831Z,18.80
2019-02-06T23:49:47.948Z,14.70
2019-02-06T23:52:32.944Z,19.33
2019-02-06T23:55:05.573Z,17.20
2019-02-06T23:57:50.075Z,19.97
